sensor_id;sensor_type;location;lat;lon;timestamp;P1;durP1;ratioP1;P2;durP2;ratioP2
46607;SDS011;32330;51.936;7.184;2022-11-28T03:19:12;6.68;;;5.20;;
46607;SDS011;32330;51.936;7.184;2022-11-28T03:21:46;6.43;;;5.13;;
46607;SDS011;32330;51.936;7.184;2022-11-28T03:24:21;7.25;;;4.80;;
46607;SDS011;32330;51.936;7.184;2022-11-28T03:29:22;6.65;;;4.80;;
46607;SDS011;32330;51.936;7.184;2022-11-28T03:31:57;7.55;;;5.05;;
46607;SDS011;32330;51.936;7.184;2022-11-28T03:34:31;5.18;;;4.68;;
46607;SDS011;32330;51.936;7.184;2022-11-28T03:37:02;7.65;;;5.40;;
46607;SDS011;32330;51.936;7.184;2022-11-28T03:39:34;7.63;;;5.20;;
46607;SDS011;32330;51.936;7.184;2022-11-28T03:42:04;6.75;;;5.30;;
46607;SDS011;32330;51.936;7.184;2022-11-28T03:44:36;9.27;;;5.93;;
46607;SDS011;32330;51.936;7.184;2022-11-28T03:47:07;6.82;;;5.25;;
46607;SDS011;32330;51.936;7.184;2022-11-28T03:49:37;7.50;;;5.35;;
46607;SDS011;32330;51.936;7.184;2022-11-28T03:52:09;6.63;;;5.78;;
46607;SDS011;32330;51.936;7.184;2022-11-28T03:54:41;5.65;;;4.95;;
46607;SDS011;32330;51.936;7.184;2022-11-28T03:57:14;11.38;;;6.65;;
46607;SDS011;32330;51.936;7.184;2022-11-28T03:59:46;6.90;;;5.57;;
46607;SDS011;32330;51.936;7.184;2022-11-28T04:02:16;7.57;;;6.03;;
46607;SDS011;32330;51.936;7.184;2022-11-28T04:04:51;8.18;;;6.07;;
46607;SDS011;32330;51.936;7.184;2022-11-28T04:07:23;7.03;;;5.93;;
46607;SDS011;32330;51.936;7.184;2022-11-28T04:09:57;7.82;;;6.00;;
46607;SDS011;32330;51.936;7.184;2022-11-28T04:12:30;7.97;;;5.95;;
46607;SDS011;32330;51.936;7.184;2022-11-28T04:15:07;9.23;;;6.45;;
46607;SDS011;32330;51.936;7.184;2022-11-28T04:17:41;8.13;;;5.47;;
46607;SDS011;32330;51.936;7.184;2022-11-28T04:20:17;7.30;;;5.75;;
46607;SDS011;32330;51.936;7.184;2022-11-28T04:22:53;6.18;;;5.57;;
46607;SDS011;32330;51.936;7.184;2022-11-28T04:25:23;9.57;;;7.10;;
46607;SDS011;32330;51.936;7.184;2022-11-28T04:27:53;8.77;;;6.25;;
46607;SDS011;32330;51.936;7.184;2022-11-28T04:30:22;5.55;;;4.13;;
46607;SDS011;32330;51.936;7.184;2022-11-28T04:32:50;8.80;;;6.68;;
46607;SDS011;32330;51.936;7.184;2022-11-28T04:35:24;8.38;;;6.20;;
46607;SDS011;32330;51.936;7.184;2022-11-28T04:37:53;7.47;;;6.28;;
46607;SDS011;32330;51.936;7.184;2022-11-28T04:40:22;9.10;;;6.05;;
46607;SDS011;32330;51.936;7.184;2022-11-28T04:42:52;8.00;;;6.38;;
46607;SDS011;32330;51.936;7.184;2022-11-28T04:45:21;7.82;;;6.10;;
46607;SDS011;32330;51.936;7.184;2022-11-28T04:47:51;9.68;;;6.53;;
46607;SDS011;32330;51.936;7.184;2022-11-28T04:50:19;8.55;;;6.55;;
46607;SDS011;32330;51.936;7.184;2022-11-28T04:52:51;9.02;;;6.55;;
46607;SDS011;32330;51.936;7.184;2022-11-28T04:55:25;7.05;;;6.05;;
46607;SDS011;32330;51.936;7.184;2022-11-28T04:57:58;8.93;;;6.38;;
46607;SDS011;32330;51.936;7.184;2022-11-28T05:00:33;7.55;;;5.80;;
46607;SDS011;32330;51.936;7.184;2022-11-28T05:03:02;10.13;;;6.68;;
46607;SDS011;32330;51.936;7.184;2022-11-28T05:05:29;7.15;;;6.13;;
46607;SDS011;32330;51.936;7.184;2022-11-28T05:07:58;8.23;;;6.72;;
46607;SDS011;32330;51.936;7.184;2022-11-28T05:10:25;10.05;;;6.60;;
46607;SDS011;32330;51.936;7.184;2022-11-28T05:12:52;9.45;;;6.35;;
46607;SDS011;32330;51.936;7.184;2022-11-28T05:15:18;7.43;;;6.63;;
46607;SDS011;32330;51.936;7.184;2022-11-28T05:17:45;11.15;;;7.63;;
46607;SDS011;32330;51.936;7.184;2022-11-28T05:20:13;8.73;;;6.82;;
46607;SDS011;32330;51.936;7.184;2022-11-28T05:22:40;9.75;;;7.15;;
46607;SDS011;32330;51.936;7.184;2022-11-28T05:25:08;12.43;;;6.47;;
46607;SDS011;32330;51.936;7.184;2022-11-28T05:27:35;8.32;;;6.28;;
46607;SDS011;32330;51.936;7.184;2022-11-28T05:30:03;13.57;;;9.80;;
46607;SDS011;32330;51.936;7.184;2022-11-28T05:32:31;8.73;;;6.90;;
46607;SDS011;32330;51.936;7.184;2022-11-28T05:34:58;8.38;;;6.38;;
46607;SDS011;32330;51.936;7.184;2022-11-28T05:37:25;8.52;;;6.03;;
46607;SDS011;32330;51.936;7.184;2022-11-28T05:39:52;6.45;;;5.55;;
46607;SDS011;32330;51.936;7.184;2022-11-28T05:42:20;9.90;;;6.15;;
46607;SDS011;32330;51.936;7.184;2022-11-28T05:44:48;7.68;;;6.13;;
46607;SDS011;32330;51.936;7.184;2022-11-28T05:47:14;9.23;;;7.03;;
46607;SDS011;32330;51.936;7.184;2022-11-28T05:49:41;8.43;;;6.75;;
46607;SDS011;32330;51.936;7.184;2022-11-28T05:52:08;6.53;;;5.78;;
46607;SDS011;32330;51.936;7.184;2022-11-28T05:54:35;9.98;;;6.30;;
46607;SDS011;32330;51.936;7.184;2022-11-28T05:57:02;7.25;;;5.78;;
46607;SDS011;32330;51.936;7.184;2022-11-28T05:59:32;8.10;;;5.93;;
46607;SDS011;32330;51.936;7.184;2022-11-28T06:02:00;8.85;;;6.20;;
46607;SDS011;32330;51.936;7.184;2022-11-28T06:04:26;7.40;;;5.28;;
46607;SDS011;32330;51.936;7.184;2022-11-28T06:06:53;7.70;;;5.72;;
46607;SDS011;32330;51.936;7.184;2022-11-28T06:09:20;6.50;;;5.68;;
46607;SDS011;32330;51.936;7.184;2022-11-28T06:11:47;7.50;;;5.32;;
46607;SDS011;32330;51.936;7.184;2022-11-28T06:14:14;10.48;;;5.68;;
46607;SDS011;32330;51.936;7.184;2022-11-28T06:16:42;7.70;;;5.63;;
46607;SDS011;32330;51.936;7.184;2022-11-28T06:19:10;8.13;;;5.40;;
46607;SDS011;32330;51.936;7.184;2022-11-28T06:21:38;6.70;;;5.22;;
46607;SDS011;32330;51.936;7.184;2022-11-28T06:24:05;9.13;;;6.03;;
46607;SDS011;32330;51.936;7.184;2022-11-28T06:26:32;8.20;;;5.60;;
46607;SDS011;32330;51.936;7.184;2022-11-28T06:28:59;6.55;;;4.75;;
46607;SDS011;32330;51.936;7.184;2022-11-28T06:31:27;6.50;;;5.53;;
46607;SDS011;32330;51.936;7.184;2022-11-28T06:33:57;7.50;;;5.40;;
46607;SDS011;32330;51.936;7.184;2022-11-28T06:36:24;6.00;;;5.15;;
46607;SDS011;32330;51.936;7.184;2022-11-28T06:38:51;6.70;;;5.25;;
46607;SDS011;32330;51.936;7.184;2022-11-28T06:41:20;5.72;;;4.68;;
46607;SDS011;32330;51.936;7.184;2022-11-28T06:43:47;5.90;;;4.60;;
46607;SDS011;32330;51.936;7.184;2022-11-28T06:46:15;8.60;;;5.60;;
46607;SDS011;32330;51.936;7.184;2022-11-28T06:48:44;7.05;;;5.35;;
46607;SDS011;32330;51.936;7.184;2022-11-28T06:51:12;5.95;;;4.72;;
46607;SDS011;32330;51.936;7.184;2022-11-28T06:53:39;6.82;;;5.47;;
46607;SDS011;32330;51.936;7.184;2022-11-28T06:56:07;6.40;;;5.18;;
46607;SDS011;32330;51.936;7.184;2022-11-28T06:58:35;8.30;;;5.30;;
46607;SDS011;32330;51.936;7.184;2022-11-28T07:01:06;7.10;;;4.95;;
46607;SDS011;32330;51.936;7.184;2022-11-28T07:03:34;6.78;;;5.50;;
46607;SDS011;32330;51.936;7.184;2022-11-28T07:06:01;5.78;;;5.10;;
46607;SDS011;32330;51.936;7.184;2022-11-28T07:08:31;7.50;;;5.60;;
46607;SDS011;32330;51.936;7.184;2022-11-28T07:11:06;8.27;;;5.60;;
46607;SDS011;32330;51.936;7.184;2022-11-28T07:13:34;7.00;;;5.05;;
46607;SDS011;32330;51.936;7.184;2022-11-28T07:16:01;6.40;;;5.45;;
46607;SDS011;32330;51.936;7.184;2022-11-28T07:18:29;9.85;;;6.38;;
46607;SDS011;32330;51.936;7.184;2022-11-28T07:20:55;8.07;;;5.82;;
46607;SDS011;32330;51.936;7.184;2022-11-28T07:23:22;9.20;;;5.65;;
46607;SDS011;32330;51.936;7.184;2022-11-28T07:25:56;7.40;;;5.40;;
46607;SDS011;32330;51.936;7.184;2022-11-28T07:28:24;7.55;;;6.03;;
46607;SDS011;32330;51.936;7.184;2022-11-28T07:30:57;7.65;;;6.05;;
46607;SDS011;32330;51.936;7.184;2022-11-28T07:33:25;6.85;;;6.15;;
46607;SDS011;32330;51.936;7.184;2022-11-28T07:35:52;7.38;;;5.50;;
46607;SDS011;32330;51.936;7.184;2022-11-28T07:38:19;7.20;;;5.63;;
46607;SDS011;32330;51.936;7.184;2022-11-28T07:40:46;9.77;;;5.80;;
46607;SDS011;32330;51.936;7.184;2022-11-28T07:43:15;7.88;;;5.63;;
46607;SDS011;32330;51.936;7.184;2022-11-28T07:45:42;7.40;;;5.75;;
46607;SDS011;32330;51.936;7.184;2022-11-28T07:48:09;8.32;;;5.50;;
46607;SDS011;32330;51.936;7.184;2022-11-28T07:50:36;8.77;;;6.53;;
46607;SDS011;32330;51.936;7.184;2022-11-28T07:53:04;10.68;;;6.75;;
46607;SDS011;32330;51.936;7.184;2022-11-28T07:55:33;10.30;;;6.55;;
46607;SDS011;32330;51.936;7.184;2022-11-28T07:58:00;8.75;;;6.63;;
46607;SDS011;32330;51.936;7.184;2022-11-28T08:00:29;9.10;;;6.28;;
46607;SDS011;32330;51.936;7.184;2022-11-28T08:02:56;9.95;;;6.30;;
46607;SDS011;32330;51.936;7.184;2022-11-28T08:05:23;8.18;;;5.88;;
46607;SDS011;32330;51.936;7.184;2022-11-28T08:07:50;7.32;;;6.35;;
46607;SDS011;32330;51.936;7.184;2022-11-28T08:10:17;10.90;;;7.10;;
46607;SDS011;32330;51.936;7.184;2022-11-28T08:12:44;11.95;;;8.45;;
46607;SDS011;32330;51.936;7.184;2022-11-28T08:15:11;9.70;;;7.20;;
46607;SDS011;32330;51.936;7.184;2022-11-28T08:17:39;8.82;;;7.32;;
46607;SDS011;32330;51.936;7.184;2022-11-28T08:20:07;7.65;;;6.80;;
46607;SDS011;32330;51.936;7.184;2022-11-28T08:22:34;11.30;;;8.57;;
46607;SDS011;32330;51.936;7.184;2022-11-28T08:25:01;10.77;;;8.23;;
46607;SDS011;32330;51.936;7.184;2022-11-28T08:27:28;8.63;;;7.72;;
46607;SDS011;32330;51.936;7.184;2022-11-28T08:29:56;11.00;;;7.70;;
46607;SDS011;32330;51.936;7.184;2022-11-28T08:32:23;11.98;;;7.35;;
46607;SDS011;32330;51.936;7.184;2022-11-28T08:34:52;15.18;;;10.75;;
46607;SDS011;32330;51.936;7.184;2022-11-28T08:37:18;14.18;;;10.25;;
46607;SDS011;32330;51.936;7.184;2022-11-28T08:39:45;15.32;;;9.30;;
46607;SDS011;32330;51.936;7.184;2022-11-28T08:42:12;12.50;;;8.15;;
46607;SDS011;32330;51.936;7.184;2022-11-28T08:44:39;13.98;;;11.32;;
46607;SDS011;32330;51.936;7.184;2022-11-28T08:47:06;13.30;;;10.55;;
46607;SDS011;32330;51.936;7.184;2022-11-28T08:49:34;10.45;;;8.65;;
46607;SDS011;32330;51.936;7.184;2022-11-28T08:52:03;8.43;;;6.47;;
46607;SDS011;32330;51.936;7.184;2022-11-28T08:54:31;8.52;;;6.75;;
46607;SDS011;32330;51.936;7.184;2022-11-28T08:56:58;10.85;;;8.15;;
46607;SDS011;32330;51.936;7.184;2022-11-28T08:59:25;8.93;;;6.75;;
46607;SDS011;32330;51.936;7.184;2022-11-28T09:01:52;8.77;;;6.22;;
46607;SDS011;32330;51.936;7.184;2022-11-28T09:04:19;9.52;;;6.97;;
46607;SDS011;32330;51.936;7.184;2022-11-28T09:06:47;13.30;;;7.95;;
46607;SDS011;32330;51.936;7.184;2022-11-28T09:09:16;7.88;;;6.78;;
46607;SDS011;32330;51.936;7.184;2022-11-28T09:11:43;7.18;;;6.38;;
46607;SDS011;32330;51.936;7.184;2022-11-28T09:14:10;9.25;;;7.45;;
46607;SDS011;32330;51.936;7.184;2022-11-28T09:16:37;7.22;;;6.40;;
46607;SDS011;32330;51.936;7.184;2022-11-28T09:19:05;8.45;;;6.57;;
46607;SDS011;32330;51.936;7.184;2022-11-28T09:21:33;8.05;;;7.25;;
46607;SDS011;32330;51.936;7.184;2022-11-28T09:24:00;7.93;;;6.93;;
46607;SDS011;32330;51.936;7.184;2022-11-28T09:26:29;7.18;;;6.05;;
46607;SDS011;32330;51.936;7.184;2022-11-28T09:28:57;9.20;;;7.45;;
46607;SDS011;32330;51.936;7.184;2022-11-28T09:31:24;7.28;;;6.05;;
46607;SDS011;32330;51.936;7.184;2022-11-28T09:33:52;8.27;;;6.53;;
46607;SDS011;32330;51.936;7.184;2022-11-28T09:38:51;7.82;;;5.93;;
46607;SDS011;32330;51.936;7.184;2022-11-28T09:41:34;8.07;;;6.40;;
46607;SDS011;32330;51.936;7.184;2022-11-28T09:44:08;7.63;;;6.28;;
46607;SDS011;32330;51.936;7.184;2022-11-28T09:46:41;7.22;;;6.10;;
46607;SDS011;32330;51.936;7.184;2022-11-28T09:52:01;8.85;;;6.15;;
46607;SDS011;32330;51.936;7.184;2022-11-28T09:54:33;8.68;;;6.15;;
46607;SDS011;32330;51.936;7.184;2022-11-28T09:57:09;9.18;;;6.07;;
46607;SDS011;32330;51.936;7.184;2022-11-28T09:59:42;6.70;;;5.85;;
46607;SDS011;32330;51.936;7.184;2022-11-28T10:02:15;7.75;;;6.57;;
46607;SDS011;32330;51.936;7.184;2022-11-28T10:04:55;8.18;;;6.93;;
46607;SDS011;32330;51.936;7.184;2022-11-28T10:07:31;8.27;;;6.45;;
46607;SDS011;32330;51.936;7.184;2022-11-28T10:10:08;11.13;;;6.95;;
46607;SDS011;32330;51.936;7.184;2022-11-28T10:12:49;7.68;;;6.30;;
46607;SDS011;32330;51.936;7.184;2022-11-28T10:15:34;9.32;;;6.82;;
46607;SDS011;32330;51.936;7.184;2022-11-28T10:18:14;9.25;;;6.90;;
46607;SDS011;32330;51.936;7.184;2022-11-28T10:20:52;8.95;;;6.20;;
46607;SDS011;32330;51.936;7.184;2022-11-28T10:23:23;9.98;;;7.20;;
46607;SDS011;32330;51.936;7.184;2022-11-28T10:25:54;9.35;;;7.18;;
46607;SDS011;32330;51.936;7.184;2022-11-28T10:28:27;7.53;;;6.78;;
46607;SDS011;32330;51.936;7.184;2022-11-28T10:30:58;9.43;;;7.07;;
46607;SDS011;32330;51.936;7.184;2022-11-28T10:33:30;7.63;;;6.82;;
46607;SDS011;32330;51.936;7.184;2022-11-28T10:36:04;11.73;;;7.32;;
46607;SDS011;32330;51.936;7.184;2022-11-28T10:38:33;12.55;;;7.85;;
46607;SDS011;32330;51.936;7.184;2022-11-28T10:41:03;10.25;;;6.57;;
46607;SDS011;32330;51.936;7.184;2022-11-28T10:43:39;8.57;;;6.75;;
46607;SDS011;32330;51.936;7.184;2022-11-28T10:49:19;8.57;;;6.70;;
46607;SDS011;32330;51.936;7.184;2022-11-28T10:51:54;9.57;;;7.55;;
46607;SDS011;32330;51.936;7.184;2022-11-28T10:57:28;9.27;;;6.60;;
46607;SDS011;32330;51.936;7.184;2022-11-28T11:00:07;9.15;;;7.40;;
46607;SDS011;32330;51.936;7.184;2022-11-28T11:02:37;8.75;;;7.22;;
46607;SDS011;32330;51.936;7.184;2022-11-28T11:05:10;10.98;;;8.18;;
46607;SDS011;32330;51.936;7.184;2022-11-28T11:07:41;13.18;;;9.98;;
46607;SDS011;32330;51.936;7.184;2022-11-28T11:10:13;11.35;;;8.05;;
46607;SDS011;32330;51.936;7.184;2022-11-28T11:12:41;9.93;;;8.93;;
46607;SDS011;32330;51.936;7.184;2022-11-28T11:15:18;12.68;;;7.68;;
46607;SDS011;32330;51.936;7.184;2022-11-28T11:17:47;12.23;;;8.30;;
46607;SDS011;32330;51.936;7.184;2022-11-28T11:23:12;11.20;;;8.45;;
46607;SDS011;32330;51.936;7.184;2022-11-28T11:25:46;9.63;;;7.32;;
46607;SDS011;32330;51.936;7.184;2022-11-28T11:31:15;13.00;;;9.00;;
46607;SDS011;32330;51.936;7.184;2022-11-28T11:33:45;10.52;;;8.40;;
46607;SDS011;32330;51.936;7.184;2022-11-28T11:36:25;13.15;;;9.02;;
46607;SDS011;32330;51.936;7.184;2022-11-28T11:39:04;10.35;;;8.30;;
46607;SDS011;32330;51.936;7.184;2022-11-28T11:41:32;11.30;;;9.00;;
46607;SDS011;32330;51.936;7.184;2022-11-28T11:46:55;11.65;;;8.68;;
46607;SDS011;32330;51.936;7.184;2022-11-28T11:49:29;11.60;;;8.38;;
46607;SDS011;32330;51.936;7.184;2022-11-28T11:51:57;11.40;;;8.15;;
46607;SDS011;32330;51.936;7.184;2022-11-28T11:54:26;10.27;;;8.30;;
46607;SDS011;32330;51.936;7.184;2022-11-28T11:56:53;10.63;;;8.20;;
46607;SDS011;32330;51.936;7.184;2022-11-28T11:59:23;10.93;;;8.60;;
46607;SDS011;32330;51.936;7.184;2022-11-28T12:01:57;11.27;;;8.50;;
46607;SDS011;32330;51.936;7.184;2022-11-28T12:04:28;10.52;;;9.43;;
46607;SDS011;32330;51.936;7.184;2022-11-28T12:06:59;10.80;;;8.68;;
46607;SDS011;32330;51.936;7.184;2022-11-28T12:09:33;13.73;;;8.75;;
46607;SDS011;32330;51.936;7.184;2022-11-28T12:12:08;12.48;;;9.50;;
46607;SDS011;32330;51.936;7.184;2022-11-28T12:14:39;15.23;;;8.88;;
46607;SDS011;32330;51.936;7.184;2022-11-28T12:17:11;12.65;;;10.48;;
46607;SDS011;32330;51.936;7.184;2022-11-28T12:19:53;10.73;;;9.35;;
46607;SDS011;32330;51.936;7.184;2022-11-28T12:22:30;11.27;;;9.23;;
46607;SDS011;32330;51.936;7.184;2022-11-28T12:25:07;10.38;;;9.15;;
46607;SDS011;32330;51.936;7.184;2022-11-28T12:27:47;13.32;;;10.35;;
46607;SDS011;32330;51.936;7.184;2022-11-28T12:30:29;14.35;;;10.00;;
46607;SDS011;32330;51.936;7.184;2022-11-28T12:33:14;10.55;;;9.35;;
46607;SDS011;32330;51.936;7.184;2022-11-28T12:35:51;12.25;;;9.48;;
46607;SDS011;32330;51.936;7.184;2022-11-28T12:38:30;11.77;;;10.02;;
46607;SDS011;32330;51.936;7.184;2022-11-28T12:41:13;11.70;;;9.30;;
46607;SDS011;32330;51.936;7.184;2022-11-28T12:43:54;11.25;;;9.43;;
46607;SDS011;32330;51.936;7.184;2022-11-28T12:46:29;11.27;;;9.52;;
46607;SDS011;32330;51.936;7.184;2022-11-28T12:49:05;14.13;;;10.63;;
46607;SDS011;32330;51.936;7.184;2022-11-28T12:51:41;13.75;;;10.88;;
46607;SDS011;32330;51.936;7.184;2022-11-28T12:54:22;12.55;;;11.07;;
46607;SDS011;32330;51.936;7.184;2022-11-28T12:57:01;12.57;;;10.60;;
46607;SDS011;32330;51.936;7.184;2022-11-28T12:59:34;16.08;;;12.43;;
46607;SDS011;32330;51.936;7.184;2022-11-28T13:02:14;14.98;;;12.10;;
46607;SDS011;32330;51.936;7.184;2022-11-28T13:07:31;13.32;;;10.20;;
46607;SDS011;32330;51.936;7.184;2022-11-28T13:10:07;11.50;;;10.18;;
46607;SDS011;32330;51.936;7.184;2022-11-28T13:12:43;12.75;;;10.85;;
46607;SDS011;32330;51.936;7.184;2022-11-28T13:15:18;15.75;;;12.40;;
46607;SDS011;32330;51.936;7.184;2022-11-28T13:17:54;15.07;;;11.45;;
46607;SDS011;32330;51.936;7.184;2022-11-28T13:20:27;13.05;;;11.73;;
46607;SDS011;32330;51.936;7.184;2022-11-28T13:23:02;17.23;;;15.07;;
46607;SDS011;32330;51.936;7.184;2022-11-28T13:25:37;18.40;;;16.10;;
46607;SDS011;32330;51.936;7.184;2022-11-28T13:28:12;15.07;;;13.57;;
46607;SDS011;32330;51.936;7.184;2022-11-28T13:30:45;34.65;;;28.33;;
46607;SDS011;32330;51.936;7.184;2022-11-28T13:33:24;19.73;;;17.63;;
46607;SDS011;32330;51.936;7.184;2022-11-28T13:35:59;16.27;;;13.95;;
46607;SDS011;32330;51.936;7.184;2022-11-28T13:38:29;16.50;;;14.38;;
46607;SDS011;32330;51.936;7.184;2022-11-28T13:41:05;14.68;;;13.18;;
46607;SDS011;32330;51.936;7.184;2022-11-28T13:43:39;20.08;;;18.15;;
46607;SDS011;32330;51.936;7.184;2022-11-28T13:46:12;15.70;;;13.73;;
46607;SDS011;32330;51.936;7.184;2022-11-28T13:48:49;19.40;;;17.40;;
46607;SDS011;32330;51.936;7.184;2022-11-28T13:56:21;17.17;;;14.88;;
46607;SDS011;32330;51.936;7.184;2022-11-28T13:58:50;15.93;;;14.32;;
46607;SDS011;32330;51.936;7.184;2022-11-28T14:10:23;17.02;;;14.07;;
46607;SDS011;32330;51.936;7.184;2022-11-28T14:13:12;15.77;;;14.18;;
46607;SDS011;32330;51.936;7.184;2022-11-28T14:16:10;16.00;;;14.38;;
46607;SDS011;32330;51.936;7.184;2022-11-28T14:19:04;17.55;;;15.75;;
46607;SDS011;32330;51.936;7.184;2022-11-28T14:21:52;16.40;;;14.80;;
46607;SDS011;32330;51.936;7.184;2022-11-28T14:24:35;15.98;;;14.35;;
46607;SDS011;32330;51.936;7.184;2022-11-28T14:27:15;16.40;;;14.45;;
46607;SDS011;32330;51.936;7.184;2022-11-28T14:29:48;15.35;;;13.82;;
46607;SDS011;32330;51.936;7.184;2022-11-28T14:32:26;17.63;;;15.82;;
46607;SDS011;32330;51.936;7.184;2022-11-28T14:34:59;16.95;;;14.70;;
46607;SDS011;32330;51.936;7.184;2022-11-28T14:37:34;17.20;;;14.27;;
46607;SDS011;32330;51.936;7.184;2022-11-28T14:44:43;16.63;;;13.75;;
46607;SDS011;32330;51.936;7.184;2022-11-28T14:47:16;16.63;;;14.88;;
46607;SDS011;32330;51.936;7.184;2022-11-28T14:56:09;23.33;;;16.50;;
46607;SDS011;32330;51.936;7.184;2022-11-28T14:58:54;19.83;;;14.68;;
46607;SDS011;32330;51.936;7.184;2022-11-28T15:04:03;17.25;;;14.85;;
46607;SDS011;32330;51.936;7.184;2022-11-28T15:06:40;16.42;;;14.57;;
46607;SDS011;32330;51.936;7.184;2022-11-28T15:09:10;16.83;;;15.10;;
46607;SDS011;32330;51.936;7.184;2022-11-28T15:11:48;18.15;;;16.25;;
46607;SDS011;32330;51.936;7.184;2022-11-28T15:14:29;18.75;;;15.90;;
46607;SDS011;32330;51.936;7.184;2022-11-28T15:16:59;15.77;;;14.23;;
46607;SDS011;32330;51.936;7.184;2022-11-28T15:19:30;19.10;;;17.10;;
46607;SDS011;32330;51.936;7.184;2022-11-28T15:22:01;17.58;;;15.73;;
46607;SDS011;32330;51.936;7.184;2022-11-28T15:24:31;17.13;;;15.13;;
46607;SDS011;32330;51.936;7.184;2022-11-28T15:27:15;20.45;;;18.45;;
46607;SDS011;32330;51.936;7.184;2022-11-28T15:29:51;17.00;;;15.20;;
46607;SDS011;32330;51.936;7.184;2022-11-28T15:32:19;23.35;;;20.27;;
46607;SDS011;32330;51.936;7.184;2022-11-28T15:34:51;27.98;;;24.25;;
46607;SDS011;32330;51.936;7.184;2022-11-28T15:37:22;24.73;;;21.52;;
46607;SDS011;32330;51.936;7.184;2022-11-28T15:39:53;16.42;;;14.73;;
46607;SDS011;32330;51.936;7.184;2022-11-28T15:42:22;20.73;;;18.17;;
46607;SDS011;32330;51.936;7.184;2022-11-28T15:44:53;20.98;;;16.38;;
46607;SDS011;32330;51.936;7.184;2022-11-28T15:47:22;23.70;;;21.05;;
46607;SDS011;32330;51.936;7.184;2022-11-28T15:49:59;20.85;;;17.48;;
46607;SDS011;32330;51.936;7.184;2022-11-28T15:52:28;22.88;;;17.38;;
46607;SDS011;32330;51.936;7.184;2022-11-28T15:54:56;28.08;;;24.05;;
46607;SDS011;32330;51.936;7.184;2022-11-28T15:57:24;25.40;;;20.70;;
46607;SDS011;32330;51.936;7.184;2022-11-28T15:59:53;23.55;;;18.88;;
46607;SDS011;32330;51.936;7.184;2022-11-28T16:02:22;22.83;;;18.65;;
46607;SDS011;32330;51.936;7.184;2022-11-28T16:04:54;23.80;;;20.15;;
46607;SDS011;32330;51.936;7.184;2022-11-28T16:07:26;25.45;;;20.02;;
46607;SDS011;32330;51.936;7.184;2022-11-28T16:09:55;26.83;;;22.00;;
46607;SDS011;32330;51.936;7.184;2022-11-28T16:12:24;35.72;;;28.77;;
46607;SDS011;32330;51.936;7.184;2022-11-28T16:14:52;26.17;;;20.63;;
46607;SDS011;32330;51.936;7.184;2022-11-28T16:17:26;30.33;;;24.48;;
46607;SDS011;32330;51.936;7.184;2022-11-28T16:19:55;26.60;;;20.30;;
46607;SDS011;32330;51.936;7.184;2022-11-28T16:22:27;28.77;;;23.40;;
46607;SDS011;32330;51.936;7.184;2022-11-28T16:25:09;33.33;;;24.20;;
46607;SDS011;32330;51.936;7.184;2022-11-28T16:27:39;34.72;;;24.08;;
46607;SDS011;32330;51.936;7.184;2022-11-28T16:30:23;32.00;;;23.20;;
46607;SDS011;32330;51.936;7.184;2022-11-28T16:32:51;27.60;;;20.85;;
46607;SDS011;32330;51.936;7.184;2022-11-28T16:35:23;28.85;;;20.35;;
46607;SDS011;32330;51.936;7.184;2022-11-28T16:37:53;24.70;;;20.42;;
46607;SDS011;32330;51.936;7.184;2022-11-28T16:40:32;26.60;;;19.85;;
46607;SDS011;32330;51.936;7.184;2022-11-28T16:42:59;30.98;;;22.77;;
46607;SDS011;32330;51.936;7.184;2022-11-28T16:45:29;37.22;;;27.45;;
46607;SDS011;32330;51.936;7.184;2022-11-28T16:48:01;34.63;;;24.63;;
46607;SDS011;32330;51.936;7.184;2022-11-28T16:50:34;27.52;;;21.48;;
46607;SDS011;32330;51.936;7.184;2022-11-28T16:53:03;29.95;;;22.08;;
46607;SDS011;32330;51.936;7.184;2022-11-28T16:55:43;24.98;;;20.42;;
46607;SDS011;32330;51.936;7.184;2022-11-28T16:58:11;25.35;;;20.48;;
46607;SDS011;32330;51.936;7.184;2022-11-28T17:00:41;28.17;;;20.77;;
46607;SDS011;32330;51.936;7.184;2022-11-28T17:03:19;25.80;;;20.65;;
46607;SDS011;32330;51.936;7.184;2022-11-28T17:06:03;24.67;;;20.02;;
46607;SDS011;32330;51.936;7.184;2022-11-28T17:08:32;25.23;;;21.10;;
46607;SDS011;32330;51.936;7.184;2022-11-28T17:10:59;25.33;;;20.30;;
46607;SDS011;32330;51.936;7.184;2022-11-28T17:13:26;25.65;;;19.92;;
46607;SDS011;32330;51.936;7.184;2022-11-28T17:15:55;27.65;;;21.95;;
46607;SDS011;32330;51.936;7.184;2022-11-28T17:18:22;28.08;;;21.70;;
46607;SDS011;32330;51.936;7.184;2022-11-28T17:20:49;29.10;;;22.27;;
46607;SDS011;32330;51.936;7.184;2022-11-28T17:23:17;29.75;;;23.33;;
46607;SDS011;32330;51.936;7.184;2022-11-28T17:25:50;32.33;;;24.52;;
46607;SDS011;32330;51.936;7.184;2022-11-28T17:28:17;26.65;;;22.52;;
46607;SDS011;32330;51.936;7.184;2022-11-28T17:30:44;30.42;;;24.63;;
46607;SDS011;32330;51.936;7.184;2022-11-28T17:33:12;34.58;;;26.40;;
46607;SDS011;32330;51.936;7.184;2022-11-28T17:35:41;36.10;;;26.83;;
46607;SDS011;32330;51.936;7.184;2022-11-28T17:38:15;43.92;;;32.50;;
46607;SDS011;32330;51.936;7.184;2022-11-28T17:40:42;39.38;;;31.65;;
46607;SDS011;32330;51.936;7.184;2022-11-28T17:43:15;47.70;;;39.70;;
46607;SDS011;32330;51.936;7.184;2022-11-28T17:45:43;38.25;;;29.60;;
46607;SDS011;32330;51.936;7.184;2022-11-28T17:48:11;37.03;;;27.48;;
46607;SDS011;32330;51.936;7.184;2022-11-28T17:50:40;31.52;;;25.00;;
46607;SDS011;32330;51.936;7.184;2022-11-28T17:53:11;36.05;;;26.52;;
46607;SDS011;32330;51.936;7.184;2022-11-28T17:55:38;44.42;;;32.45;;
46607;SDS011;32330;51.936;7.184;2022-11-28T17:58:08;37.63;;;26.33;;
46607;SDS011;32330;51.936;7.184;2022-11-28T18:00:43;49.80;;;35.47;;
46607;SDS011;32330;51.936;7.184;2022-11-28T18:03:10;32.80;;;25.67;;
46607;SDS011;32330;51.936;7.184;2022-11-28T18:05:38;36.85;;;27.20;;
46607;SDS011;32330;51.936;7.184;2022-11-28T18:08:07;42.33;;;26.30;;
46607;SDS011;32330;51.936;7.184;2022-11-28T18:10:34;40.10;;;29.60;;
46607;SDS011;32330;51.936;7.184;2022-11-28T18:13:01;37.47;;;27.67;;
46607;SDS011;32330;51.936;7.184;2022-11-28T18:15:29;35.38;;;25.45;;
46607;SDS011;32330;51.936;7.184;2022-11-28T18:17:58;42.08;;;24.35;;
46607;SDS011;32330;51.936;7.184;2022-11-28T18:20:25;41.90;;;28.27;;
46607;SDS011;32330;51.936;7.184;2022-11-28T18:22:53;42.30;;;27.60;;
46607;SDS011;32330;51.936;7.184;2022-11-28T18:25:21;42.97;;;28.40;;
46607;SDS011;32330;51.936;7.184;2022-11-28T18:27:49;44.17;;;27.95;;
46607;SDS011;32330;51.936;7.184;2022-11-28T18:30:16;45.38;;;26.30;;
46607;SDS011;32330;51.936;7.184;2022-11-28T18:32:44;44.45;;;27.17;;
46607;SDS011;32330;51.936;7.184;2022-11-28T18:35:12;41.28;;;27.55;;
46607;SDS011;32330;51.936;7.184;2022-11-28T18:37:39;58.17;;;29.02;;
46607;SDS011;32330;51.936;7.184;2022-11-28T18:40:06;52.63;;;29.05;;
46607;SDS011;32330;51.936;7.184;2022-11-28T18:42:34;56.45;;;28.75;;
46607;SDS011;32330;51.936;7.184;2022-11-28T18:45:01;58.53;;;29.63;;
46607;SDS011;32330;51.936;7.184;2022-11-28T18:47:29;46.85;;;28.05;;
46607;SDS011;32330;51.936;7.184;2022-11-28T18:49:56;47.25;;;27.52;;
46607;SDS011;32330;51.936;7.184;2022-11-28T18:52:25;47.70;;;25.52;;
46607;SDS011;32330;51.936;7.184;2022-11-28T18:54:51;45.47;;;25.70;;
46607;SDS011;32330;51.936;7.184;2022-11-28T18:57:18;47.28;;;26.80;;
46607;SDS011;32330;51.936;7.184;2022-11-28T18:59:46;41.17;;;25.23;;
46607;SDS011;32330;51.936;7.184;2022-11-28T19:02:14;49.42;;;27.83;;
46607;SDS011;32330;51.936;7.184;2022-11-28T19:04:41;44.92;;;26.15;;
46607;SDS011;32330;51.936;7.184;2022-11-28T19:07:08;48.38;;;27.30;;
46607;SDS011;32330;51.936;7.184;2022-11-28T19:09:37;44.63;;;26.95;;